Weather at Twin Lakes Airport

Public forecast

Using degrees Fahrenheit for public forecast. Weather courtesy of forecast.io.

Closest aviation weather report (METAR) to Twin Lakes Airport

Closest report is Gaylord Regional Airport, 18.7 nm (34.6 km) WNW. Retrieved 2022/01/21 19:53 UTC (37 minutes ago):

KGLR 211953Z AUTO 18007KT 10SM CLR M08/M16 A3040 RMK AO2 SLP323 T10831156 PWINO FZRANO

Closest aviation forecast (TAF) to Twin Lakes Airport

Closest forecast is Alpena County Regional Airport, 33.2 nm (61.5 km) ENE. Retrieved 2022/01/21 18:22 UTC (2 hours ago):

TAF KAPN 211720Z 2118/2218 20006KT P6SM SCT250 FM221200 20010G22KT P6SM BKN050 OVC100 FM221500 21013G23KT 4SM -SN BR OVC035